Time;durP1;ratioP1;P1;durP2;ratioP2;P2;SDS_P1;SDS_P2;PMS_P1;PMS_P2;Temp;Humidity;BMP_temperature;BMP_pressure;BME280_temperature;BME280_humidity;BME280_pressure;Samples;Min_cycle;Max_cycle;Signal;HPM_P1;HPM_P2
2022/01/24 00:00:10;;;;;;;41.63;16.80;;;;;;;-3.38;68.15;101796.16;4961037;28;20097;-78
2022/01/24 00:02:37;;;;;;;40.80;16.20;;;;;;;-3.36;68.27;101787.00;4959386;28;20046;-78
2022/01/24 00:05:04;;;;;;;37.85;15.60;;;;;;;-3.21;68.20;101805.16;4961652;28;20071;-78
2022/01/24 00:07:29;;;;;;;39.13;16.65;;;;;;;-3.05;68.33;101819.97;4957845;28;20098;-78
2022/01/24 00:09:59;;;;;;;39.17;15.95;;;;;;;-3.07;68.28;101796.94;4960058;28;20046;-77
2022/01/24 00:17:38;;;;;;;37.40;16.55;;;;;;;-2.88;67.82;101817.09;4959481;28;20047;-79
2022/01/24 00:28:20;;;;;;;41.00;17.70;;;;;;;-2.87;67.09;101833.28;4960626;28;20046;-77
2022/01/24 00:30:46;;;;;;;43.50;18.55;;;;;;;-3.09;67.49;101808.66;4946662;28;20039;-79
2022/01/24 00:33:12;;;;;;;48.08;20.13;;;;;;;-3.18;68.09;101795.19;4966572;28;20133;-78
2022/01/24 00:35:38;;;;;;;47.20;19.70;;;;;;;-2.91;67.51;101816.88;4963534;28;20444;-79
2022/01/24 00:38:04;;;;;;;46.28;19.65;;;;;;;-2.88;67.69;101812.00;4964177;28;20034;-78
2022/01/24 00:40:35;;;;;;;44.58;20.65;;;;;;;-2.88;67.74;101806.00;4963174;28;20081;-78
2022/01/24 00:43:01;;;;;;;44.08;20.88;;;;;;;-2.76;67.69;101823.91;4946207;28;20043;-77
2022/01/24 00:55:40;;;;;;;39.63;17.55;;;;;;;-2.76;67.78;101804.41;4960200;28;20073;-78
2022/01/24 00:58:06;;;;;;;46.67;18.38;;;;;;;-2.74;67.53;101810.50;4961788;28;20411;-78
2022/01/24 01:00:32;;;;;;;45.65;18.20;;;;;;;-2.61;67.60;101826.75;4964556;28;20042;-78
2022/01/24 01:02:57;;;;;;;41.50;17.67;;;;;;;-2.88;67.11;101794.16;4963798;28;20534;-77
2022/01/24 01:05:38;;;;;;;40.38;17.75;;;;;;;-2.83;67.49;101808.91;4962071;28;20714;-79
2022/01/24 01:18:49;;;;;;;36.45;15.05;;;;;;;-2.93;66.66;101802.19;4965487;28;20056;-78
2022/01/24 01:21:16;;;;;;;33.85;15.00;;;;;;;-2.78;67.23;101841.66;4966475;28;20042;-79
2022/01/24 01:23:53;;;;;;;37.50;15.45;;;;;;;-2.69;67.58;101841.47;4981890;28;20733;-78
2022/01/24 01:26:27;;;;;;;38.72;16.38;;;;;;;-2.66;67.69;101833.16;4982583;28;20041;-78
2022/01/24 01:29:15;;;;;;;38.00;15.18;;;;;;;-2.54;67.07;101848.50;4968253;28;20041;-77
2022/01/24 01:55:39;;;;;;;39.72;16.45;;;;;;;-2.58;67.14;101842.28;4983194;28;20379;-78
2022/01/24 01:58:13;;;;;;;38.92;17.90;;;;;;;-2.44;67.40;101854.44;4962864;28;20042;-77
2022/01/24 02:00:47;;;;;;;45.10;17.88;;;;;;;-2.47;67.08;101845.66;4968043;28;20089;-78
2022/01/24 02:03:13;;;;;;;41.10;17.55;;;;;;;-2.54;66.93;101820.47;4980555;28;20042;-77
2022/01/24 02:05:39;;;;;;;41.22;17.92;;;;;;;-2.30;67.37;101865.69;4963730;28;20452;-77
2022/01/24 02:08:05;;;;;;;37.20;16.52;;;;;;;-2.27;66.70;101870.13;4962104;28;20045;-77
2022/01/24 02:10:36;;;;;;;38.55;16.40;;;;;;;-2.50;66.77;101819.94;4963289;28;20046;-77
2022/01/24 02:13:02;;;;;;;42.03;17.52;;;;;;;-2.49;67.09;101824.25;4963521;28;20050;-78
2022/01/24 02:23:42;;;;;;;36.50;17.30;;;;;;;-2.29;66.47;101870.03;4981280;28;20418;-78
2022/01/24 02:26:12;;;;;;;37.35;15.57;;;;;;;-2.31;67.11;101869.03;4950335;28;20042;-78
2022/01/24 02:28:48;;;;;;;36.85;15.88;;;;;;;-2.25;66.69;101853.28;4941309;28;20042;-77
2022/01/24 02:33:46;;;;;;;36.80;16.17;;;;;;;-2.43;66.26;101822.19;4980676;28;20046;-77
2022/01/24 02:36:17;;;;;;;40.58;16.65;;;;;;;-2.34;66.67;101845.81;4962114;28;20088;-78
2022/01/24 02:49:59;;;;;;;35.28;15.20;;;;;;;-2.61;66.91;101848.03;4948115;28;20044;-82
2022/01/24 02:52:27;;;;;;;37.38;16.50;;;;;;;-2.58;66.36;101857.59;4964957;28;20133;-79
2022/01/24 02:54:53;;;;;;;33.33;15.48;;;;;;;-2.54;66.84;101851.97;4962533;28;20046;-78
2022/01/24 02:57:20;;;;;;;38.00;16.15;;;;;;;-2.57;66.77;101839.84;4963563;28;20038;-81
2022/01/24 02:59:47;;;;;;;34.15;15.18;;;;;;;-2.55;66.76;101837.44;4952643;28;20042;-80
2022/01/24 03:02:13;;;;;;;34.53;16.27;;;;;;;-2.73;66.02;101832.66;4948599;28;20053;-82
2022/01/24 03:04:39;;;;;;;38.85;15.80;;;;;;;-2.70;66.38;101848.97;4970408;28;20042;-81
2022/01/24 03:07:05;;;;;;;36.13;16.33;;;;;;;-2.68;66.69;101844.88;4988725;28;20068;-80
2022/01/24 03:09:32;;;;;;;38.55;14.70;;;;;;;-2.68;66.31;101844.88;4968810;28;20066;-82
2022/01/24 03:12:08;;;;;;;35.88;15.05;;;;;;;-2.76;66.59;101829.88;4972603;28;20047;-81
2022/01/24 03:14:36;;;;;;;35.58;16.63;;;;;;;-2.61;66.94;101842.06;4957648;28;20053;-80
2022/01/24 03:17:06;;;;;;;34.60;14.45;;;;;;;-2.60;66.82;101839.59;4953840;28;20124;-79
2022/01/24 03:19:32;;;;;;;32.95;14.70;;;;;;;-2.62;66.81;101835.19;4965607;28;20058;-80
2022/01/24 03:22:00;;;;;;;36.65;15.93;;;;;;;-2.63;66.86;101839.38;4963148;28;20671;-82
2022/01/24 03:24:26;;;;;;;34.00;16.25;;;;;;;-2.61;66.53;101845.47;4978923;28;20062;-78
2022/01/24 03:26:52;;;;;;;38.00;16.90;;;;;;;-2.63;66.78;101852.13;4960322;28;20041;-79
2022/01/24 03:29:17;;;;;;;36.60;16.00;;;;;;;-2.68;66.58;101840.69;4981725;28;20038;-79
2022/01/24 03:31:45;;;;;;;40.28;17.17;;;;;;;-2.63;66.24;101843.59;4966606;28;20046;-77
2022/01/24 03:34:11;;;;;;;38.28;16.90;;;;;;;-2.63;66.44;101839.38;4979437;28;20125;-77
2022/01/24 03:36:37;;;;;;;44.28;18.88;;;;;;;-2.81;66.54;101822.66;4964194;28;20041;-78
2022/01/24 03:39:04;;;;;;;34.00;16.42;;;;;;;-2.83;66.28;101830.19;4948715;28;20413;-78
2022/01/24 03:41:29;;;;;;;35.42;16.77;;;;;;;-2.73;66.61;101835.22;4964313;28;20038;-78
2022/01/24 03:44:02;;;;;;;37.38;16.63;;;;;;;-2.63;66.85;101838.50;4965552;28;20045;-78
2022/01/24 03:46:30;;;;;;;29.27;13.55;;;;;;;-2.73;66.41;101842.88;4979725;28;20034;-77
2022/01/24 03:49:09;;;;;;;30.55;14.60;;;;;;;-3.01;66.98;101793.09;4980162;28;20064;-77
2022/01/24 03:51:35;;;;;;;27.25;13.35;;;;;;;-2.69;67.18;101836.38;4963267;28;20045;-78
2022/01/24 03:54:01;;;;;;;33.10;14.10;;;;;;;-2.81;66.86;101823.56;4962653;28;20051;-77
2022/01/24 03:56:27;;;;;;;31.15;13.70;;;;;;;-2.82;66.90;101823.44;4948021;28;20050;-77
2022/01/24 03:58:53;;;;;;;33.10;14.05;;;;;;;-2.79;66.62;101844.97;4948404;28;20089;-76
2022/01/24 04:01:18;;;;;;;33.67;13.70;;;;;;;-2.91;66.57;101836.34;4963465;28;20039;-79
2022/01/24 04:03:44;;;;;;;31.70;13.65;;;;;;;-2.80;67.38;101837.19;4981404;28;20070;-78
2022/01/24 04:06:10;;;;;;;41.28;17.33;;;;;;;-2.84;66.84;101830.97;4965504;28;20038;-79
2022/01/24 04:08:36;;;;;;;29.42;14.43;;;;;;;-2.88;67.21;101824.75;4985041;28;20493;-76
2022/01/24 04:11:09;;;;;;;29.95;13.18;;;;;;;-2.87;66.93;101825.63;4983422;28;20482;-79
2022/01/24 04:13:39;;;;;;;32.05;14.70;;;;;;;-2.97;66.72;101806.19;4950082;28;20125;-78
2022/01/24 04:18:42;;;;;;;34.03;13.80;;;;;;;-2.98;66.63;101824.78;4951423;28;20501;-79
2022/01/24 04:24:20;;;;;;;43.42;17.48;;;;;;;-3.13;66.23;101809.19;4966862;28;20049;-77
2022/01/24 04:26:41;;;;;;;32.47;14.55;;;;;;;-3.45;65.55;101814.25;4982972;28;20422;-80
2022/01/24 04:29:07;;;;;;;32.13;12.77;;;;;;;-3.23;66.80;101832.16;4986358;28;20039;-78
2022/01/24 04:31:33;;;;;;;26.65;12.00;;;;;;;-3.06;67.13;101847.13;4983723;28;20045;-78
2022/01/24 04:33:59;;;;;;;26.73;12.50;;;;;;;-3.26;66.69;101814.09;4951108;28;20116;-78
2022/01/24 04:36:26;;;;;;;27.92;12.57;;;;;;;-3.04;67.21;101827.75;4958287;28;20112;-78
2022/01/24 04:38:53;;;;;;;27.48;13.15;;;;;;;-2.83;66.86;101850.59;4971777;28;20037;-77
2022/01/24 04:41:24;;;;;;;28.27;12.30;;;;;;;-3.30;66.31;101814.59;4987967;28;20043;-78
2022/01/24 04:52:06;;;;;;;29.95;12.82;;;;;;;-3.70;66.61;101837.72;4990689;28;20038;-78
2022/01/24 04:54:40;;;;;;;33.60;14.05;;;;;;;-3.73;66.96;101820.56;4974955;28;20088;-76
2022/01/24 04:57:25;;;;;;;33.90;14.88;;;;;;;-3.45;66.62;101861.00;4981894;28;20039;-77
2022/01/24 04:59:52;;;;;;;37.58;15.68;;;;;;;-3.40;66.89;101862.22;5008649;28;20037;-77
2022/01/24 05:02:21;;;;;;;34.95;14.93;;;;;;;-3.42;66.50;101845.06;4989070;28;20149;-79
2022/01/24 05:04:47;;;;;;;30.42;13.60;;;;;;;-3.26;66.99;101854.84;4977649;28;20030;-78
2022/01/24 05:07:13;;;;;;;36.20;14.32;;;;;;;-3.85;66.60;101814.47;4988400;28;20102;-78
2022/01/24 05:12:17;;;;;;;35.05;15.07;;;;;;;-3.82;67.10;101863.06;4988502;28;20046;-79
2022/01/24 05:25:40;;;;;;;33.03;14.43;;;;;;;-3.80;65.76;101836.09;4988041;28;20090;-77
2022/01/24 05:28:06;;;;;;;37.35;15.32;;;;;;;-3.75;66.44;101872.13;4982437;28;20157;-79
2022/01/24 05:30:32;;;;;;;34.17;14.35;;;;;;;-3.79;66.41;101856.59;4949847;28;20046;-77
2022/01/24 05:32:58;;;;;;;33.85;14.68;;;;;;;-3.97;66.03;101847.44;4982890;28;20065;-78
2022/01/24 05:35:24;;;;;;;36.17;16.27;;;;;;;-4.00;66.70;101854.81;4964917;28;20055;-77
2022/01/24 05:37:50;;;;;;;35.53;15.35;;;;;;;-3.86;67.36;101866.16;4982353;28;20038;-79
2022/01/24 05:40:15;;;;;;;33.95;15.10;;;;;;;-4.01;66.20;101846.28;4967306;28;20517;-77
2022/01/24 05:42:41;;;;;;;38.28;16.27;;;;;;;-4.17;66.73;101828.84;4981054;28;20145;-76
2022/01/24 05:45:07;;;;;;;38.25;16.40;;;;;;;-4.05;66.29;101868.81;4965879;28;20502;-77
2022/01/24 05:47:36;;;;;;;36.95;16.13;;;;;;;-4.17;66.63;101866.13;4963714;28;20363;-79
2022/01/24 05:50:03;;;;;;;33.15;15.52;;;;;;;-4.23;65.13;101861.44;4936866;28;20521;-79
2022/01/24 05:52:29;;;;;;;35.63;17.02;;;;;;;-4.58;66.63;101832.25;4981755;28;20046;-79
2022/01/24 05:54:54;;;;;;;47.33;19.17;;;;;;;-4.51;66.14;101850.56;4965188;28;20104;-77
2022/01/24 05:57:20;;;;;;;41.67;18.63;;;;;;;-4.22;67.26;101885.19;4963923;28;20098;-79
2022/01/24 05:59:46;;;;;;;43.60;17.35;;;;;;;-4.44;66.98;101845.25;4966850;28;20042;-79
2022/01/24 06:02:12;;;;;;;37.33;16.73;;;;;;;-4.18;67.12;101833.81;4968092;28;20060;-79
2022/01/24 06:04:38;;;;;;;34.28;16.48;;;;;;;-3.77;67.08;101846.53;4967516;28;20109;-80
2022/01/24 06:07:04;;;;;;;37.92;16.23;;;;;;;-3.76;66.77;101817.78;4984763;28;20168;-78
2022/01/24 06:09:30;;;;;;;36.58;15.45;;;;;;;-3.46;66.53;101848.13;4949506;28;20170;-79
2022/01/24 06:11:55;;;;;;;38.70;17.17;;;;;;;-3.31;66.66;101833.19;4950500;28;20049;-78
2022/01/24 06:14:21;;;;;;;37.75;15.82;;;;;;;-3.37;65.47;101819.19;4963355;28;20053;-77
2022/01/24 06:16:47;;;;;;;38.35;15.95;;;;;;;-3.21;66.29;101831.50;4965362;28;20168;-79
2022/01/24 06:19:13;;;;;;;35.70;17.88;;;;;;;-2.92;65.79;101867.69;4946678;28;20046;-77
2022/01/24 06:21:40;;;;;;;38.03;17.52;;;;;;;-2.99;66.20;101858.66;4964880;28;20054;-79
2022/01/24 06:24:09;;;;;;;40.08;15.95;;;;;;;-2.81;66.63;101826.09;4966731;28;20413;-77
2022/01/24 06:26:35;;;;;;;36.60;16.13;;;;;;;-2.54;66.01;101831.56;4953004;28;20052;-79
2022/01/24 06:29:03;;;;;;;42.47;16.70;;;;;;;-2.65;65.80;101748.25;4936444;28;20560;-77
2022/01/24 06:31:30;;;;;;;39.08;16.02;;;;;;;-1.70;65.54;101866.75;4964163;28;20073;-77
2022/01/24 06:33:55;;;;;;;41.47;16.83;;;;;;;-1.81;65.68;101826.78;4963753;28;20046;-80
2022/01/24 06:36:21;;;;;;;34.17;14.63;;;;;;;-1.84;64.07;101839.31;4948000;28;20046;-79
2022/01/24 06:38:47;;;;;;;37.75;16.20;;;;;;;-1.74;65.50;101858.75;4965970;28;20045;-80
2022/01/24 06:41:21;;;;;;;35.92;16.13;;;;;;;-1.54;65.43;101863.66;4948803;28;20070;-77
2022/01/24 06:43:47;;;;;;;37.92;17.42;;;;;;;-1.79;63.28;101863.53;4964153;28;20046;-80
2022/01/24 06:46:13;;;;;;;40.75;17.60;;;;;;;-1.87;64.07;101846.72;4964698;28;20049;-78
2022/01/24 06:48:39;;;;;;;38.95;18.15;;;;;;;-1.72;64.52;101852.97;4938570;28;20043;-79
2022/01/24 06:51:10;;;;;;;44.30;20.10;;;;;;;-1.90;64.08;101851.59;4982164;28;20133;-77
2022/01/24 06:53:40;;;;;;;39.93;17.87;;;;;;;-2.02;64.95;101839.72;4962486;28;20117;-79
2022/01/24 06:56:07;;;;;;;37.05;15.52;;;;;;;-1.87;64.04;101855.25;4980009;28;20038;-77
2022/01/24 06:58:35;;;;;;;36.30;16.15;;;;;;;-2.25;63.59;101832.88;4981052;28;20049;-80
2022/01/24 07:01:02;;;;;;;44.30;16.27;;;;;;;-2.19;64.03;101851.22;4980080;28;20111;-77
2022/01/24 07:03:27;;;;;;;36.67;15.70;;;;;;;-2.32;63.70;101840.84;4981177;28;20046;-79
2022/01/24 07:05:53;;;;;;;42.95;16.02;;;;;;;-2.21;63.88;101857.84;4965228;28;20493;-78
2022/01/24 07:08:19;;;;;;;38.40;17.25;;;;;;;-2.12;63.97;101856.00;4962696;28;20074;-80
2022/01/24 07:10:45;;;;;;;46.28;18.30;;;;;;;-2.01;64.08;101848.25;4965487;28;20049;-79
2022/01/24 07:13:11;;;;;;;46.20;18.30;;;;;;;-2.03;64.17;101837.94;4961970;28;20042;-79
2022/01/24 07:15:48;;;;;;;44.28;18.30;;;;;;;-1.99;63.89;101867.13;4962607;28;20061;-79
2022/01/24 07:20:55;;;;;;;44.58;17.92;;;;;;;-1.89;64.17;101871.25;4962587;28;20133;-79
2022/01/24 07:23:21;;;;;;;52.38;20.95;;;;;;;-2.03;64.18;101849.81;4978512;28;20042;-78
2022/01/24 07:25:47;;;;;;;46.42;20.67;;;;;;;-2.18;63.59;101840.22;4947354;28;20042;-79
2022/01/24 07:28:14;;;;;;;50.78;21.15;;;;;;;-2.16;63.58;101846.34;4963994;28;20046;-79
2022/01/24 07:30:53;;;;;;;45.95;19.83;;;;;;;-2.05;64.36;101851.34;4962587;28;20064;-79
2022/01/24 07:33:19;;;;;;;59.17;24.90;;;;;;;-2.02;63.62;101861.78;4967026;28;20131;-79
2022/01/24 07:35:45;;;;;;;56.65;23.42;;;;;;;-2.04;63.51;101853.13;4981520;28;20103;-79
2022/01/24 07:38:19;;;;;;;59.22;24.10;;;;;;;-1.92;63.88;101871.03;4965436;28;20050;-78
2022/01/24 07:40:48;;;;;;;52.85;20.58;;;;;;;-2.04;62.71;101873.53;4987217;28;20044;-78
2022/01/24 07:43:15;;;;;;;51.15;21.15;;;;;;;-2.08;63.76;101869.88;4987874;28;20096;-80
2022/01/24 07:45:46;;;;;;;56.50;22.83;;;;;;;-2.09;63.56;101851.88;4974307;28;20062;-79
2022/01/24 07:48:13;;;;;;;49.97;20.40;;;;;;;-2.07;63.71;101863.09;4956826;28;20108;-78
2022/01/24 07:50:42;;;;;;;53.45;21.10;;;;;;;-1.97;63.58;101868.13;4984682;28;20177;-80
2022/01/24 07:53:12;;;;;;;58.67;23.95;;;;;;;-2.03;63.00;101852.34;4986276;28;20065;-78
2022/01/24 07:55:38;;;;;;;54.25;22.10;;;;;;;-1.82;63.97;101858.19;4975315;28;20046;-79
2022/01/24 07:58:06;;;;;;;52.05;22.13;;;;;;;-2.05;63.42;101826.72;4954556;28;20473;-82
2022/01/24 08:00:34;;;;;;;57.08;23.13;;;;;;;-1.83;64.11;101864.94;4971202;28;20043;-80
2022/01/24 08:02:59;;;;;;;53.85;22.17;;;;;;;-1.76;63.82;101865.41;4942477;28;20073;-79
2022/01/24 08:05:27;;;;;;;52.58;23.10;;;;;;;-1.74;63.32;101856.19;4974026;28;20141;-78
2022/01/24 08:07:52;;;;;;;51.30;19.98;;;;;;;-1.92;63.71;101841.31;4987485;28;20058;-78
2022/01/24 08:10:18;;;;;;;41.25;17.38;;;;;;;-2.05;62.68;101869.22;4969397;28;20090;-78
2022/01/24 08:12:44;;;;;;;42.22;17.73;;;;;;;-2.26;63.48;101869.34;4986812;28;20049;-80
2022/01/24 08:15:14;;;;;;;38.30;17.50;;;;;;;-2.45;63.14;101849.22;4954336;28;20046;-80
2022/01/24 08:17:42;;;;;;;44.10;18.50;;;;;;;-2.49;63.74;101853.19;4942061;28;21000;-79
2022/01/24 08:20:10;;;;;;;46.15;17.35;;;;;;;-2.47;63.46;101861.84;4941881;28;20049;-77
2022/01/24 08:22:36;;;;;;;43.08;17.90;;;;;;;-2.58;63.58;101832.09;4955049;28;20402;-79
2022/01/24 08:25:04;;;;;;;45.85;18.95;;;;;;;-2.69;63.55;101833.81;4969592;28;20052;-81
2022/01/24 08:27:33;;;;;;;39.60;17.75;;;;;;;-2.60;62.54;101844.72;4954222;28;20046;-78
2022/01/24 08:30:16;;;;;;;43.92;18.63;;;;;;;-2.81;63.65;101808.28;4925822;28;20536;-79
2022/01/24 08:32:42;;;;;;;43.25;18.38;;;;;;;-2.68;63.36;101816.84;4956069;28;20053;-82
2022/01/24 08:35:09;;;;;;;46.95;18.42;;;;;;;-2.98;62.96;101766.19;4953088;28;20109;-81
2022/01/24 08:37:36;;;;;;;53.83;19.83;;;;;;;-2.92;63.21;101792.16;4986322;28;20035;-79
2022/01/24 08:40:22;;;;;;;44.65;20.55;;;;;;;-2.89;63.49;101789.84;4953554;28;20042;-79
2022/01/24 08:43:02;;;;;;;53.25;19.40;;;;;;;-3.44;63.17;101710.03;4966922;28;20133;-77
2022/01/24 08:45:50;;;;;;;46.00;19.13;;;;;;;-2.82;63.46;101810.69;4952385;28;20133;-80
2022/01/24 08:48:20;;;;;;;44.72;18.10;;;;;;;-2.35;63.72;101863.56;4988721;28;20030;-81
2022/01/24 08:50:52;;;;;;;44.92;19.50;;;;;;;-2.44;63.78;101825.50;4960161;28;20049;-80
2022/01/24 08:53:18;;;;;;;43.47;16.50;;;;;;;-2.22;62.83;101862.84;4985196;28;20038;-83
2022/01/24 08:55:47;;;;;;;45.55;19.08;;;;;;;-2.62;63.35;101828.41;4968751;28;20045;-80
2022/01/24 08:58:14;;;;;;;46.95;18.88;;;;;;;-2.85;62.92;101819.00;4953780;28;20402;-79
2022/01/24 09:00:42;;;;;;;42.03;16.85;;;;;;;-2.69;62.98;101854.22;4968946;28;20125;-81
2022/01/24 09:03:08;;;;;;;45.53;17.67;;;;;;;-2.68;63.52;101833.06;4952028;28;20089;-81
2022/01/24 09:05:35;;;;;;;42.30;17.02;;;;;;;-2.49;64.32;101849.75;4970658;28;20119;-79
2022/01/24 09:08:05;;;;;;;52.80;19.58;;;;;;;-2.34;63.73;101848.38;4986589;28;20076;-81
2022/01/24 09:10:40;;;;;;;47.45;19.88;;;;;;;-2.84;63.54;101745.97;4961238;28;20038;-80
2022/01/24 09:13:07;;;;;;;48.92;21.25;;;;;;;-2.38;63.73;101791.94;4987483;28;20054;-80
2022/01/24 09:15:33;;;;;;;49.38;21.83;;;;;;;-2.33;62.84;101844.19;4986191;28;20101;-83
2022/01/24 09:17:58;;;;;;;51.78;23.20;;;;;;;-2.51;62.70;101844.53;4935985;28;20054;-81
2022/01/24 09:20:27;;;;;;;51.10;21.83;;;;;;;-2.65;62.61;101810.34;4986098;28;20165;-80
2022/01/24 09:22:54;;;;;;;57.13;23.85;;;;;;;-2.57;63.40;101813.47;4955719;28;20425;-80
2022/01/24 09:25:32;;;;;;;60.03;24.13;;;;;;;-2.55;63.45;101789.00;4968191;28;20518;-79
2022/01/24 09:27:58;;;;;;;72.60;28.23;;;;;;;-2.89;63.51;101730.34;4988793;28;20046;-81
2022/01/24 09:30:27;;;;;;;85.72;34.92;;;;;;;-2.49;63.95;101802.19;4969957;28;20054;-80
2022/01/24 09:32:53;;;;;;;84.35;31.25;;;;;;;-2.61;63.55;101752.81;4968681;28;20046;-81
2022/01/24 09:35:28;;;;;;;78.65;28.63;;;;;;;-2.24;63.54;101827.00;4952631;28;20457;-79
2022/01/24 09:38:27;;;;;;;;;;;;;;;;;;;;;
2022/01/24 09:41:12;;;;;;;59.45;25.73;;;;;;;-3.04;63.08;101641.78;4970333;28;20085;-81
2022/01/24 09:44:11;;;;;;;56.30;24.55;;;;;;;-2.99;63.20;101633.59;4983281;28;20042;-78
2022/01/24 09:47:02;;;;;;;55.25;24.67;;;;;;;-1.66;62.82;101821.91;4972738;28;20132;-81
2022/01/24 09:49:50;;;;;;;55.30;24.13;;;;;;;-2.61;62.78;101653.41;4984283;28;20042;-81
2022/01/24 09:52:17;;;;;;;53.10;21.30;;;;;;;-2.87;62.84;101593.72;4968351;28;20082;-80
2022/01/24 09:54:48;;;;;;;54.08;21.27;;;;;;;-2.23;63.08;101728.44;4951582;28;20488;-80
2022/01/24 09:57:15;;;;;;;46.13;20.95;;;;;;;-2.91;62.30;101607.91;4953897;28;20188;-77
2022/01/24 09:59:41;;;;;;;65.80;29.98;;;;;;;-2.61;62.54;101635.56;4940029;28;20046;-79
2022/01/24 10:02:07;;;;;;;50.17;22.00;;;;;;;-2.73;62.40;101626.22;4927912;28;20707;-79
2022/01/24 10:04:39;;;;;;;51.90;21.05;;;;;;;-1.97;62.81;101725.22;4968780;28;20053;-77
2022/01/24 10:07:11;;;;;;;52.97;22.58;;;;;;;-1.44;63.04;101786.03;4965081;28;20092;-77
2022/01/24 10:09:45;;;;;;;53.03;23.33;;;;;;;-2.13;63.01;101660.34;4970774;28;20039;-79
2022/01/24 10:12:27;;;;;;;54.70;21.95;;;;;;;-1.34;62.58;101790.13;4966865;28;20151;-81
2022/01/24 10:17:41;;;;;;;46.38;19.13;;;;;;;-1.58;62.22;101744.19;4968733;28;20097;-78
2022/01/24 10:20:32;;;;;;;45.63;18.83;;;;;;;-1.34;62.03;101785.03;4982372;28;20528;-80
2022/01/24 10:23:09;;;;;;;43.72;21.00;;;;;;;-1.45;62.78;101760.41;4967368;28;20863;-79
2022/01/24 10:26:05;;;;;;;46.97;19.73;;;;;;;-1.40;61.99;101747.16;4983312;28;20042;-78
2022/01/24 10:28:36;;;;;;;44.40;18.92;;;;;;;-1.25;62.32;101772.00;4970032;28;20530;-81
2022/01/24 10:31:24;;;;;;;47.05;21.25;;;;;;;-1.39;62.13;101740.38;4970870;28;20592;-79
2022/01/24 10:34:12;;;;;;;46.55;20.50;;;;;;;-1.21;62.43;101769.78;4960412;28;20038;-80
2022/01/24 10:36:46;;;;;;;56.42;22.10;;;;;;;-1.14;62.39;101767.66;4970279;28;20046;-77
2022/01/24 10:39:53;;;;;;;51.75;21.92;;;;;;;-1.28;62.30;101723.25;4934059;28;20126;-78
2022/01/24 10:44:55;;;;;;;48.08;20.77;;;;;;;-1.00;61.92;101759.31;4984671;28;20518;-80
2022/01/24 10:47:24;;;;;;;48.90;20.73;;;;;;;-1.18;62.52;101743.56;4954290;28;20042;-76
2022/01/24 10:49:53;;;;;;;43.95;20.27;;;;;;;-1.23;61.71;101739.81;4984770;28;20097;-76
2022/01/24 10:52:24;;;;;;;44.72;19.80;;;;;;;-1.21;62.16;101739.13;4960254;28;20536;-78
2022/01/24 10:54:54;;;;;;;44.58;19.80;;;;;;;-1.18;61.77;101750.34;4992388;28;20038;-79
2022/01/24 10:57:28;;;;;;;44.25;18.95;;;;;;;-1.26;61.71;101730.25;4986501;28;20057;-80
2022/01/24 11:00:08;;;;;;;41.53;19.33;;;;;;;-1.31;62.46;101720.47;4974130;28;20038;-79
2022/01/24 11:02:41;;;;;;;43.58;18.42;;;;;;;-1.23;62.01;101727.03;4983053;28;20098;-80
2022/01/24 11:05:13;;;;;;;43.08;19.02;;;;;;;-1.07;62.54;101741.75;4986431;28;20038;-78
2022/01/24 11:07:58;;;;;;;48.05;21.15;;;;;;;-1.13;61.83;101723.44;4970417;28;20038;-78
2022/01/24 11:10:27;;;;;;;44.67;20.13;;;;;;;-1.08;62.47;101727.22;4949415;28;20061;-79
2022/01/24 11:12:54;;;;;;;43.47;18.80;;;;;;;-1.09;62.46;101722.88;4964540;28;20038;-78
2022/01/24 11:15:24;;;;;;;37.22;16.80;;;;;;;-1.09;62.33;101692.22;4966885;28;20061;-81
2022/01/24 11:17:52;;;;;;;39.85;16.02;;;;;;;-0.96;62.48;101724.63;4981063;28;20043;-78
2022/01/24 11:20:19;;;;;;;34.15;14.90;;;;;;;-1.19;61.58;101712.78;4957967;28;20062;-78
2022/01/24 11:22:50;;;;;;;38.38;16.48;;;;;;;-1.24;62.10;101718.50;4970404;28;20045;-81
2022/01/24 11:25:16;;;;;;;37.38;16.52;;;;;;;-1.23;62.10;101709.13;4987355;28;20038;-82
2022/01/24 11:27:47;;;;;;;37.17;16.20;;;;;;;-1.19;62.64;101716.25;4988631;28;20035;-78
2022/01/24 11:30:45;;;;;;;39.55;16.67;;;;;;;-1.17;62.46;101732.56;4985636;28;20506;-81
2022/01/24 11:33:16;;;;;;;36.08;15.52;;;;;;;-1.34;62.12;101695.63;4954313;28;20129;-80
2022/01/24 11:35:51;;;;;;;39.72;16.33;;;;;;;-1.26;62.41;101711.47;4987916;28;20065;-80
2022/01/24 11:38:46;;;;;;;39.10;16.73;;;;;;;-1.37;62.54;101688.66;4991845;28;20081;-80
2022/01/24 11:41:20;;;;;;;38.90;16.63;;;;;;;-1.13;62.60;101716.69;4990139;28;20195;-78
2022/01/24 11:43:50;;;;;;;40.05;15.98;;;;;;;-1.23;62.58;101670.81;4971611;28;20566;-78
2022/01/24 11:46:37;;;;;;;41.50;19.05;;;;;;;-0.97;62.38;101698.16;4972715;28;20046;-78
2022/01/24 11:49:18;;;;;;;38.70;18.33;;;;;;;-1.09;62.23;101717.78;4943756;28;20137;-80
2022/01/24 11:51:49;;;;;;;43.10;18.90;;;;;;;-2.29;62.52;101504.38;4970209;28;20054;-81
2022/01/24 11:54:30;;;;;;;41.15;18.17;;;;;;;-1.42;62.27;101617.56;4970255;28;20034;-79
2022/01/24 11:57:15;;;;;;;42.13;19.58;;;;;;;-0.88;62.02;101699.56;4971227;28;20049;-78
2022/01/24 11:59:47;;;;;;;47.95;19.05;;;;;;;-1.37;62.41;101600.88;4987012;28;21476;-79
2022/01/24 12:02:25;;;;;;;47.22;19.73;;;;;;;-1.53;62.36;101555.53;4958707;28;20125;-79
2022/01/24 12:04:54;;;;;;;46.72;20.00;;;;;;;-1.87;62.61;101497.94;4952821;28;20505;-79
2022/01/24 12:07:28;;;;;;;51.75;24.48;;;;;;;-1.14;62.82;101622.91;4984985;28;20117;-79
2022/01/24 12:10:15;;;;;;;49.65;23.77;;;;;;;-0.85;62.09;101667.41;4985795;28;20077;-80
2022/01/24 12:12:48;;;;;;;54.85;25.65;;;;;;;-0.91;62.38;101659.38;4986067;28;20051;-79
2022/01/24 12:15:36;;;;;;;52.15;23.85;;;;;;;-0.81;61.81;101673.66;4970696;28;20042;-79
2022/01/24 12:18:03;;;;;;;60.55;27.15;;;;;;;-0.83;61.79;101670.97;4951539;28;20925;-79
2022/01/24 12:20:31;;;;;;;71.00;32.22;;;;;;;-0.86;62.26;101675.88;4987132;28;20112;-78
2022/01/24 12:22:58;;;;;;;73.32;31.92;;;;;;;-0.97;61.51;101661.50;4968986;28;20065;-79
2022/01/24 12:25:49;;;;;;;66.60;29.27;;;;;;;-1.04;62.20;101667.88;4987128;28;20050;-81
2022/01/24 12:28:20;;;;;;;60.33;27.30;;;;;;;-1.08;61.94;101661.63;4993685;28;20046;-80
2022/01/24 12:31:07;;;;;;;64.05;26.25;;;;;;;-1.26;61.48;101635.75;4953348;28;20417;-81
2022/01/24 12:33:55;;;;;;;63.80;27.65;;;;;;;-1.93;61.05;101540.03;4973822;28;20046;-79
2022/01/24 12:37:04;;;;;;;67.18;27.05;;;;;;;-1.74;61.04;101600.91;4984365;28;20254;-79
2022/01/24 12:39:52;;;;;;;61.45;24.80;;;;;;;-2.70;61.86;101474.28;4937254;28;20050;-81
2022/01/24 12:42:32;;;;;;;55.58;24.23;;;;;;;-1.54;62.49;101654.25;4970476;28;20034;-77
2022/01/24 12:48:17;;;;;;;57.58;24.95;;;;;;;-1.62;62.34;101650.25;4972873;28;20510;-78
2022/01/24 12:50:51;;;;;;;57.17;23.73;;;;;;;-1.43;62.65;101665.22;4988235;28;20084;-77
2022/01/24 12:53:19;;;;;;;65.50;26.90;;;;;;;-1.44;62.66;101673.66;4973544;28;20070;-78
2022/01/24 12:55:58;;;;;;;60.97;25.35;;;;;;;-2.10;61.29;101605.19;4966129;28;20042;-79
2022/01/24 12:58:59;;;;;;;65.43;25.42;;;;;;;-1.84;62.05;101671.72;4988763;28;20157;-80
2022/01/24 13:01:52;;;;;;;67.05;27.30;;;;;;;-2.73;62.26;101529.38;4937874;28;20055;-81
2022/01/24 13:04:21;;;;;;;67.68;26.88;;;;;;;-1.84;62.41;101669.16;4971367;28;20038;-81
2022/01/24 13:06:46;;;;;;;63.78;26.20;;;;;;;-2.05;62.50;101620.06;4960855;28;20102;-81
2022/01/24 13:09:18;;;;;;;68.10;26.88;;;;;;;-1.78;62.15;101662.72;4989279;28;20089;-78
2022/01/24 13:11:49;;;;;;;69.05;26.75;;;;;;;-2.04;62.36;101626.03;4992416;28;20792;-83
2022/01/24 13:14:31;;;;;;;68.03;27.77;;;;;;;-1.86;62.12;101655.41;4987340;28;20045;-80
2022/01/24 13:23:12;;;;;;;63.42;25.90;;;;;;;-2.73;62.24;101526.81;4981152;28;20046;-80
2022/01/24 13:25:55;;;;;;;72.63;28.27;;;;;;;-3.18;62.43;101446.25;4972612;28;20138;-82
2022/01/24 13:28:29;;;;;;;68.32;26.58;;;;;;;-2.60;63.06;101532.81;4944065;28;20506;-78
2022/01/24 13:31:03;;;;;;;62.58;27.05;;;;;;;-2.29;62.96;101570.69;4967248;28;20042;-84